Time;durP1;ratioP1;P1;durP2;ratioP2;P2;SDS_P1;SDS_P2;PMS_P1;PMS_P2;Temp;Humidity;BMP_temperature;BMP_pressure;BME280_temperature;BME280_humidity;BME280_pressure;Samples;Min_cycle;Max_cycle;Signal;HPM_P1;HPM_P2
2021/08/05 00:01:41;;;;;;;14.43;13.18;;;15.20;99.90;;;;;;4995089;28;20108;-74
2021/08/05 00:04:07;;;;;;;14.60;13.27;;;15.20;99.90;;;;;;4993664;28;20485;-74
2021/08/05 00:06:32;;;;;;;14.73;13.35;;;15.20;99.90;;;;;;4994607;28;20419;-76
2021/08/05 00:08:58;;;;;;;13.82;12.52;;;15.10;99.90;;;;;;4994353;28;20069;-76
2021/08/05 00:11:23;;;;;;;14.15;12.95;;;15.20;99.90;;;;;;4994199;28;20054;-74
2021/08/05 00:13:49;;;;;;;14.85;13.55;;;15.10;99.90;;;;;;4994169;28;20026;-74
2021/08/05 00:16:15;;;;;;;15.48;14.07;;;15.10;99.90;;;;;;4994579;28;20439;-76
2021/08/05 00:18:40;;;;;;;14.50;13.30;;;15.10;99.90;;;;;;4993621;28;20030;-75
2021/08/05 00:21:06;;;;;;;13.95;12.75;;;15.10;99.90;;;;;;4993891;28;20025;-75
2021/08/05 00:23:31;;;;;;;14.85;13.55;;;15.10;99.90;;;;;;4994446;28;20029;-76
2021/08/05 00:25:57;;;;;;;14.02;12.65;;;15.10;99.90;;;;;;4993182;28;20050;-75
2021/08/05 00:28:22;;;;;;;14.10;13.00;;;15.10;99.90;;;;;;4993991;28;20529;-73
2021/08/05 00:30:48;;;;;;;13.98;12.57;;;15.00;99.90;;;;;;4993664;28;20029;-75
2021/08/05 00:33:14;;;;;;;14.45;13.07;;;15.00;99.90;;;;;;4992083;28;20593;-76
2021/08/05 00:35:39;;;;;;;15.48;14.13;;;15.00;99.90;;;;;;4993813;28;20023;-74
2021/08/05 00:38:05;;;;;;;15.52;14.07;;;15.00;99.90;;;;;;4993722;28;20105;-75
2021/08/05 00:40:31;;;;;;;14.07;12.77;;;15.00;99.90;;;;;;4993455;28;20458;-75
2021/08/05 00:42:56;;;;;;;15.93;14.43;;;14.90;99.90;;;;;;4993480;28;20478;-75
2021/08/05 00:45:22;;;;;;;15.75;14.35;;;14.90;99.90;;;;;;4993731;28;20057;-75
2021/08/05 00:47:47;;;;;;;15.98;14.43;;;14.90;99.90;;;;;;4992450;28;20046;-75
2021/08/05 00:50:13;;;;;;;14.38;13.07;;;14.90;99.90;;;;;;4993420;28;20113;-75
2021/08/05 00:52:38;;;;;;;16.00;14.40;;;14.90;99.90;;;;;;4993583;28;20031;-75
2021/08/05 00:55:05;;;;;;;14.90;13.50;;;14.90;99.90;;;;;;4992442;28;20390;-74
2021/08/05 00:57:31;;;;;;;14.98;13.73;;;14.90;99.90;;;;;;4994236;28;20042;-77
2021/08/05 00:59:58;;;;;;;15.98;13.38;;;14.90;99.90;;;;;;4992997;28;20030;-75
2021/08/05 01:02:29;;;;;;;14.73;13.20;;;14.80;99.90;;;;;;4993355;28;20026;-75
2021/08/05 01:04:56;;;;;;;14.45;13.25;;;14.80;99.90;;;;;;4992949;28;20030;-74
2021/08/05 01:07:55;;;;;;;13.88;12.52;;;14.80;99.90;;;;;;4992887;28;20065;-75
2021/08/05 01:10:25;;;;;;;8.90;8.18;;;14.80;99.90;;;;;;4993177;28;20105;-75
2021/08/05 01:13:09;;;;;;;8.07;7.50;;;14.80;99.90;;;;;;4991774;28;20058;-75
2021/08/05 01:15:35;;;;;;;9.13;8.43;;;14.80;99.90;;;;;;4992675;28;20236;-74
2021/08/05 01:18:07;;;;;;;10.13;9.40;;;14.80;99.90;;;;;;4993208;28;20479;-74
2021/08/05 01:20:33;;;;;;;9.25;8.60;;;14.70;99.90;;;;;;4993299;28;20033;-74
2021/08/05 01:23:17;;;;;;;9.13;8.32;;;14.80;99.90;;;;;;4992132;28;20026;-74
2021/08/05 01:25:48;;;;;;;9.30;8.60;;;14.70;99.90;;;;;;4992376;28;20077;-75
2021/08/05 01:28:14;;;;;;;8.88;8.18;;;14.70;99.90;;;;;;4992142;28;20034;-74
2021/08/05 01:30:42;;;;;;;6.10;5.68;;;14.70;99.90;;;;;;4993031;28;20073;-76
2021/08/05 01:33:10;;;;;;;4.60;4.30;;;14.70;99.90;;;;;;4992601;28;20100;-75
2021/08/05 01:35:36;;;;;;;3.80;3.60;;;14.60;99.90;;;;;;4992299;28;20031;-75
2021/08/05 01:38:02;;;;;;;6.05;5.65;;;14.60;99.90;;;;;;4992354;28;20037;-75
2021/08/05 01:40:29;;;;;;;6.63;6.13;;;14.60;99.90;;;;;;4992880;28;20026;-75
2021/08/05 01:42:57;;;;;;;9.48;7.85;;;14.50;99.90;;;;;;4991985;28;20078;-74
2021/08/05 01:45:23;;;;;;;10.88;10.07;;;14.50;99.90;;;;;;4992680;28;20057;-75
2021/08/05 01:47:50;;;;;;;12.60;11.60;;;14.50;99.90;;;;;;4992398;28;20078;-76
2021/08/05 01:50:16;;;;;;;15.85;14.45;;;14.50;99.90;;;;;;4991787;28;20029;-75
2021/08/05 01:52:44;;;;;;;16.05;14.50;;;14.50;99.90;;;;;;4992844;28;20026;-76
2021/08/05 01:55:11;;;;;;;15.05;13.82;;;14.50;99.90;;;;;;4993073;28;20026;-75
2021/08/05 01:57:37;;;;;;;17.27;15.65;;;14.60;99.90;;;;;;4992811;28;20034;-75
2021/08/05 02:00:07;;;;;;;17.65;16.05;;;14.60;99.90;;;;;;4992772;28;20023;-75
2021/08/05 02:02:33;;;;;;;;;;;14.60;99.90;;;;;;4993444;28;20170;-74
2021/08/05 02:05:08;;;;;;;15.68;14.23;;;14.60;99.90;;;;;;4992650;28;19977;-74
2021/08/05 02:08:03;;;;;;;13.60;12.40;;;14.60;99.90;;;;;;4992685;28;20043;-74
2021/08/05 02:10:35;;;;;;;11.90;10.90;;;14.60;99.90;;;;;;4991523;28;20062;-75
2021/08/05 02:13:17;;;;;;;11.90;11.00;;;14.60;99.90;;;;;;4992085;28;20046;-76
2021/08/05 02:15:51;;;;;;;10.98;10.07;;;14.60;99.90;;;;;;4992324;28;20133;-75
2021/08/05 02:18:17;;;;;;;15.25;13.82;;;14.50;99.90;;;;;;4992300;28;20030;-75
2021/08/05 02:20:45;;;;;;;13.57;12.35;;;14.50;99.90;;;;;;4993197;28;20593;-75
2021/08/05 02:23:13;;;;;;;15.80;14.27;;;14.50;99.90;;;;;;4992442;28;20081;-76
2021/08/05 02:25:40;;;;;;;15.95;14.45;;;14.80;99.90;;;;;;4992242;28;20109;-73
2021/08/05 02:28:06;;;;;;;13.38;12.07;;;14.50;99.90;;;;;;4992227;28;20030;-75
2021/08/05 02:30:32;;;;;;;16.92;15.32;;;14.40;99.90;;;;;;4992340;28;20030;-76
2021/08/05 02:32:57;;;;;;;16.25;14.77;;;14.40;99.90;;;;;;4991859;28;20087;-76
2021/08/05 02:35:24;;;;;;;15.73;14.32;;;14.40;99.90;;;;;;4993293;28;20117;-75
2021/08/05 02:37:52;;;;;;;17.42;15.65;;;14.40;99.90;;;;;;4980109;28;20427;-74
2021/08/05 02:40:17;;;;;;;19.30;17.25;;;14.40;99.90;;;;;;4995674;28;20061;-75
2021/08/05 02:42:46;;;;;;;19.60;17.52;;;14.40;99.90;;;;;;4996328;28;20054;-74
2021/08/05 02:45:12;;;;;;;15.82;14.35;;;14.40;99.90;;;;;;4996338;28;20379;-74
2021/08/05 02:47:38;;;;;;;18.35;16.33;;;14.40;99.90;;;;;;4983107;28;20074;-77
2021/08/05 02:50:05;;;;;;;18.55;16.85;;;14.40;99.90;;;;;;4994765;28;20027;-73
2021/08/05 02:52:31;;;;;;;19.42;17.50;;;14.40;99.90;;;;;;4995257;28;20113;-76
2021/08/05 02:54:57;;;;;;;18.77;16.98;;;14.40;99.90;;;;;;4992502;28;20026;-76
2021/08/05 02:57:23;;;;;;;20.77;18.10;;;14.50;99.90;;;;;;4985132;28;20501;-75
2021/08/05 02:59:52;;;;;;;17.85;16.00;;;14.50;99.90;;;;;;4993854;28;20085;-75
2021/08/05 03:02:18;;;;;;;16.20;14.70;;;14.50;99.90;;;;;;4983542;28;20395;-75
2021/08/05 03:04:44;;;;;;;14.02;12.80;;;14.50;99.90;;;;;;4995409;28;20033;-74
2021/08/05 03:07:11;;;;;;;15.02;13.63;;;14.50;99.90;;;;;;4994792;28;20030;-74
2021/08/05 03:09:37;;;;;;;15.02;13.73;;;14.50;99.90;;;;;;4995702;28;20038;-75
2021/08/05 03:12:02;;;;;;;15.63;14.23;;;14.50;99.90;;;;;;4994817;28;20117;-75
2021/08/05 03:14:28;;;;;;;16.55;14.65;;;14.50;99.90;;;;;;4995026;28;20451;-75
2021/08/05 03:16:54;;;;;;;18.73;16.38;;;14.50;99.90;;;;;;4995344;28;20497;-75
2021/08/05 03:19:19;;;;;;;19.23;17.02;;;14.50;99.90;;;;;;4996333;28;20035;-74
2021/08/05 03:21:45;;;;;;;20.98;18.77;;;14.50;99.90;;;;;;4994862;28;20040;-75
2021/08/05 03:24:10;;;;;;;22.20;19.90;;;14.50;99.90;;;;;;4995262;28;20029;-76
2021/08/05 03:26:36;;;;;;;20.13;18.13;;;14.50;99.90;;;;;;4995427;28;20018;-75
2021/08/05 03:29:01;;;;;;;18.73;16.85;;;14.50;99.90;;;;;;4993870;28;20030;-74
2021/08/05 03:31:27;;;;;;;19.10;17.10;;;14.50;99.90;;;;;;4995212;28;20105;-74
2021/08/05 03:33:52;;;;;;;18.30;16.60;;;14.50;99.90;;;;;;4994703;28;20022;-76
2021/08/05 03:36:18;;;;;;;18.92;17.10;;;14.40;99.90;;;;;;4994342;28;20080;-73
2021/08/05 03:38:43;;;;;;;18.20;16.30;;;14.40;99.90;;;;;;4994683;28;20106;-75
2021/08/05 03:41:09;;;;;;;19.50;17.40;;;14.40;99.90;;;;;;4994833;28;20410;-75
2021/08/05 03:43:35;;;;;;;20.88;17.73;;;14.40;99.90;;;;;;4994585;28;20546;-75
2021/08/05 03:46:01;;;;;;;20.45;17.95;;;14.40;99.90;;;;;;4994240;28;20433;-74
2021/08/05 03:48:26;;;;;;;20.10;18.10;;;14.40;99.90;;;;;;4994695;28;20096;-74
2021/08/05 03:50:53;;;;;;;23.42;20.00;;;14.40;99.90;;;;;;4993471;28;20113;-76
2021/08/05 03:53:18;;;;;;;25.80;23.02;;;14.40;99.90;;;;;;4994769;28;20027;-75
2021/08/05 03:55:47;;;;;;;25.88;23.13;;;14.40;99.90;;;;;;4994035;28;20026;-75
2021/08/05 03:58:12;;;;;;;26.70;23.65;;;14.50;99.90;;;;;;4994768;28;20049;-76
2021/08/05 04:00:39;;;;;;;27.10;24.20;;;14.50;99.90;;;;;;4994628;28;20431;-75
2021/08/05 04:03:04;;;;;;;30.10;24.40;;;14.60;99.90;;;;;;4993353;28;20535;-75
2021/08/05 04:05:30;;;;;;;31.42;26.35;;;14.60;99.90;;;;;;4994410;28;20022;-73
2021/08/05 04:07:55;;;;;;;33.47;27.73;;;14.60;99.90;;;;;;4993980;28;20034;-75
2021/08/05 04:10:21;;;;;;;26.25;23.25;;;14.70;99.90;;;;;;4993474;28;20033;-75
2021/08/05 04:12:46;;;;;;;24.83;22.23;;;14.70;99.90;;;;;;4993857;28;20468;-76
2021/08/05 04:15:12;;;;;;;28.30;25.27;;;14.70;99.90;;;;;;4994164;28;20382;-75
2021/08/05 04:17:38;;;;;;;28.17;25.05;;;14.70;99.90;;;;;;4992828;28;20034;-75
2021/08/05 04:20:06;;;;;;;25.75;22.15;;;14.70;99.90;;;;;;4993835;28;20375;-75
2021/08/05 04:22:32;;;;;;;21.42;19.33;;;14.70;99.90;;;;;;4994328;28;20030;-74
2021/08/05 04:24:57;;;;;;;20.00;18.10;;;14.70;99.90;;;;;;4993203;28;20104;-75
2021/08/05 04:27:23;;;;;;;17.17;15.52;;;14.60;99.90;;;;;;4994547;28;20474;-75
2021/08/05 04:29:49;;;;;;;17.00;15.40;;;14.60;99.90;;;;;;4993989;28;20030;-75
2021/08/05 04:32:15;;;;;;;19.20;17.27;;;14.60;99.90;;;;;;4992942;28;20493;-75
2021/08/05 04:34:40;;;;;;;20.02;18.10;;;14.60;99.90;;;;;;4993919;28;20030;-76
2021/08/05 04:37:06;;;;;;;24.10;21.63;;;14.50;99.90;;;;;;4993784;28;20062;-75
2021/08/05 04:39:32;;;;;;;22.95;19.73;;;14.60;99.90;;;;;;4993413;28;20026;-76
2021/08/05 04:41:58;;;;;;;31.27;26.52;;;14.60;99.90;;;;;;4993765;28;20049;-74
2021/08/05 04:44:24;;;;;;;38.70;33.30;;;14.60;99.90;;;;;;4994129;28;20026;-76
2021/08/05 04:46:49;;;;;;;43.83;34.22;;;14.70;99.90;;;;;;4987378;28;20109;-76
2021/08/05 04:49:15;;;;;;;37.35;33.28;;;14.80;99.90;;;;;;4993532;28;20038;-74
2021/08/05 04:51:41;;;;;;;42.38;34.38;;;14.80;99.90;;;;;;4993659;28;20025;-75
2021/08/05 04:54:06;;;;;;;38.78;33.15;;;14.90;99.90;;;;;;4955127;28;20110;-76
2021/08/05 04:56:32;;;;;;;43.67;33.35;;;14.90;99.90;;;;;;4961632;28;20375;-77
2021/08/05 04:58:59;;;;;;;34.22;30.60;;;15.00;99.90;;;;;;4957459;28;20097;-77
2021/08/05 05:01:24;;;;;;;37.25;30.42;;;15.00;99.90;;;;;;4956993;28;20460;-76
2021/08/05 05:03:53;;;;;;;34.58;30.90;;;15.10;99.90;;;;;;4955695;28;20064;-76
2021/08/05 05:06:19;;;;;;;34.92;30.00;;;15.10;99.90;;;;;;4961350;28;20031;-76
2021/08/05 05:08:44;;;;;;;36.78;31.00;;;15.20;99.90;;;;;;4954638;28;20035;-76
2021/08/05 05:11:10;;;;;;;36.22;31.55;;;15.30;99.90;;;;;;4955024;28;20035;-76
2021/08/05 05:13:36;;;;;;;35.38;30.38;;;15.30;99.90;;;;;;4954211;28;20551;-76
2021/08/05 05:16:01;;;;;;;33.88;30.13;;;15.40;99.90;;;;;;4953695;28;20028;-77
2021/08/05 05:18:27;;;;;;;31.23;27.92;;;15.50;99.90;;;;;;4958470;28;20450;-77
2021/08/05 05:20:53;;;;;;;34.17;30.48;;;15.60;99.90;;;;;;4954779;28;20431;-76
2021/08/05 05:23:19;;;;;;;35.22;28.85;;;15.60;99.90;;;;;;4957385;28;20468;-76
2021/08/05 05:25:45;;;;;;;41.38;30.60;;;15.70;99.90;;;;;;4955287;28;20494;-76
2021/08/05 05:28:11;;;;;;;34.63;29.38;;;15.70;99.90;;;;;;4954314;28;20039;-77
2021/08/05 05:30:37;;;;;;;35.70;31.83;;;15.70;99.90;;;;;;4972791;28;20023;-76
2021/08/05 05:33:04;;;;;;;33.60;29.98;;;15.70;99.90;;;;;;4962492;28;20407;-76
2021/08/05 05:35:30;;;;;;;32.25;28.98;;;16.40;99.90;;;;;;4958860;28;20029;-76
2021/08/05 05:37:58;;;;;;;32.95;29.48;;;15.80;99.90;;;;;;4968045;28;20034;-78
2021/08/05 05:40:24;;;;;;;31.25;27.85;;;15.80;99.90;;;;;;4971839;28;20177;-77
2021/08/05 05:42:50;;;;;;;30.83;27.13;;;15.90;99.90;;;;;;4957096;28;20035;-77
2021/08/05 05:45:17;;;;;;;30.30;26.00;;;15.90;99.90;;;;;;4965420;28;20023;-77
2021/08/05 05:47:43;;;;;;;30.48;27.13;;;16.00;99.90;;;;;;4966724;28;20509;-76
2021/08/05 05:50:11;;;;;;;29.60;26.35;;;16.00;99.90;;;;;;4960607;28;20030;-76
2021/08/05 05:52:37;;;;;;;28.23;25.52;;;16.10;99.90;;;;;;4974039;28;20027;-77
2021/08/05 05:55:03;;;;;;;28.30;24.90;;;16.20;99.90;;;;;;4971974;28;20027;-75
2021/08/05 05:57:29;;;;;;;24.92;22.33;;;16.20;99.90;;;;;;4963969;28;20030;-76
2021/08/05 05:59:54;;;;;;;28.50;24.42;;;16.30;99.90;;;;;;4962782;28;20387;-76
2021/08/05 06:02:20;;;;;;;30.05;23.60;;;16.40;99.90;;;;;;4964072;28;20086;-77
2021/08/05 06:04:45;;;;;;;34.50;24.95;;;16.40;99.90;;;;;;4961592;28;20041;-76
2021/08/05 06:07:11;;;;;;;24.20;21.88;;;16.50;99.90;;;;;;4959004;28;20107;-77
2021/08/05 06:09:36;;;;;;;27.08;22.33;;;16.60;99.90;;;;;;4954120;28;20031;-75
2021/08/05 06:12:02;;;;;;;26.02;23.27;;;16.60;99.90;;;;;;4959244;28;20040;-76
2021/08/05 06:14:27;;;;;;;28.55;25.00;;;16.70;99.90;;;;;;4961262;28;20431;-76
2021/08/05 06:16:53;;;;;;;32.53;27.00;;;16.80;99.90;;;;;;4973490;28;20073;-76
2021/08/05 06:19:19;;;;;;;30.95;27.65;;;16.80;99.90;;;;;;4959211;28;20027;-78
2021/08/05 06:21:44;;;;;;;31.02;26.77;;;16.90;99.90;;;;;;4959990;28;20019;-78
2021/08/05 06:24:12;;;;;;;31.70;28.27;;;16.90;99.90;;;;;;4965023;28;20023;-77
2021/08/05 06:26:40;;;;;;;25.30;22.65;;;16.90;99.90;;;;;;4961253;28;20033;-78
2021/08/05 06:29:07;;;;;;;28.08;21.45;;;17.00;99.90;;;;;;4974128;28;20479;-77
2021/08/05 06:31:34;;;;;;;22.77;20.40;;;17.00;99.90;;;;;;4976655;28;20034;-77
2021/08/05 06:34:01;;;;;;;23.95;21.55;;;17.10;99.90;;;;;;4976574;28;20058;-80
2021/08/05 06:36:26;;;;;;;22.05;19.98;;;17.20;99.90;;;;;;4960881;28;20031;-79
2021/08/05 06:38:52;;;;;;;23.92;21.35;;;17.30;99.90;;;;;;4969572;28;20030;-79
2021/08/05 06:41:17;;;;;;;23.77;21.25;;;17.40;99.90;;;;;;4959646;28;20110;-80
2021/08/05 06:43:43;;;;;;;25.38;21.65;;;17.70;99.90;;;;;;4972263;28;20105;-79
2021/08/05 06:46:09;;;;;;;21.85;19.75;;;17.50;99.90;;;;;;4962897;28;20018;-80
2021/08/05 06:48:34;;;;;;;22.23;19.90;;;17.60;99.90;;;;;;4970535;28;20047;-79
2021/08/05 06:51:00;;;;;;;22.35;20.15;;;17.70;99.90;;;;;;4976900;28;20062;-79
2021/08/05 06:53:25;;;;;;;23.40;19.77;;;17.70;99.90;;;;;;4966485;28;20066;-79
2021/08/05 06:55:51;;;;;;;24.23;20.45;;;17.70;99.90;;;;;;4976391;28;20023;-78
2021/08/05 06:58:19;;;;;;;22.75;20.48;;;17.80;99.90;;;;;;4989441;28;20035;-79
2021/08/05 07:00:46;;;;;;;21.38;19.48;;;17.90;99.90;;;;;;4977899;28;20058;-78
2021/08/05 07:03:11;;;;;;;22.02;19.85;;;17.90;99.90;;;;;;4972511;28;20042;-78
2021/08/05 07:05:37;;;;;;;24.42;21.05;;;18.10;99.90;;;;;;4976394;28;20391;-78
2021/08/05 07:08:03;;;;;;;22.00;19.75;;;18.10;99.90;;;;;;4975477;28;20030;-77
2021/08/05 07:10:28;;;;;;;24.25;21.88;;;18.20;99.90;;;;;;4977922;28;20115;-79
2021/08/05 07:12:54;;;;;;;21.85;19.85;;;18.30;99.90;;;;;;4975690;28;20046;-80
2021/08/05 07:15:20;;;;;;;23.17;20.85;;;18.40;99.90;;;;;;4985350;28;20502;-79
2021/08/05 07:17:45;;;;;;;22.58;20.08;;;18.50;99.90;;;;;;4975505;28;20033;-80
2021/08/05 07:20:12;;;;;;;23.27;20.73;;;18.60;99.90;;;;;;4970954;28;20027;-79
2021/08/05 07:22:40;;;;;;;23.50;21.10;;;18.60;99.90;;;;;;4967733;28;20045;-77
2021/08/05 07:25:10;;;;;;;21.52;19.20;;;18.70;99.90;;;;;;4974593;28;20034;-78
2021/08/05 07:27:37;;;;;;;24.07;21.53;;;18.80;99.90;;;;;;4975398;28;20035;-79
2021/08/05 07:30:04;;;;;;;22.00;19.90;;;18.80;99.90;;;;;;4987404;28;20108;-77
2021/08/05 07:32:29;;;;;;;22.17;19.95;;;18.90;99.90;;;;;;4975764;28;20379;-78
2021/08/05 07:34:55;;;;;;;23.75;20.00;;;19.00;99.90;;;;;;4985460;28;20041;-80
2021/08/05 07:37:20;;;;;;;24.15;19.92;;;19.10;99.90;;;;;;4976318;28;20483;-80
2021/08/05 07:39:46;;;;;;;22.15;19.85;;;19.20;99.90;;;;;;4975188;28;20338;-78
2021/08/05 07:42:13;;;;;;;21.27;19.17;;;19.30;99.90;;;;;;4964851;28;20025;-78
2021/08/05 07:44:39;;;;;;;24.67;19.63;;;19.30;99.90;;;;;;4977547;28;20085;-79
2021/08/05 07:47:04;;;;;;;22.27;17.20;;;19.40;99.90;;;;;;4991493;28;20026;-79
2021/08/05 07:49:30;;;;;;;17.50;15.82;;;19.50;99.90;;;;;;4976642;28;20042;-77
2021/08/05 07:51:56;;;;;;;16.65;15.05;;;19.50;99.90;;;;;;4978762;28;20104;-81
2021/08/05 07:54:21;;;;;;;17.10;15.00;;;19.50;99.90;;;;;;4986482;28;20034;-80
2021/08/05 07:56:47;;;;;;;16.48;14.93;;;19.60;99.90;;;;;;4974745;28;20046;-80
2021/08/05 07:59:12;;;;;;;16.25;14.30;;;19.60;99.90;;;;;;4978602;28;20030;-77
2021/08/05 08:01:38;;;;;;;17.25;15.55;;;19.70;99.90;;;;;;4985537;28;20568;-79
2021/08/05 08:04:04;;;;;;;15.98;14.48;;;19.80;99.90;;;;;;4992552;28;20386;-79
2021/08/05 08:06:32;;;;;;;14.95;13.60;;;19.90;99.90;;;;;;4975158;28;20027;-77
2021/08/05 08:08:58;;;;;;;15.48;13.93;;;20.00;99.90;;;;;;4985010;28;20034;-77
2021/08/05 08:11:23;;;;;;;16.52;15.00;;;20.10;99.90;;;;;;4978936;28;20530;-78
2021/08/05 08:13:50;;;;;;;15.57;14.23;;;20.30;99.90;;;;;;4964647;28;20031;-78
2021/08/05 08:16:19;;;;;;;15.60;14.00;;;20.50;99.90;;;;;;4975927;28;20026;-78
2021/08/05 08:18:44;;;;;;;12.73;11.63;;;20.70;99.90;;;;;;4982567;28;20041;-77
2021/08/05 08:21:10;;;;;;;15.48;14.07;;;20.80;99.90;;;;;;4974016;28;20027;-77
2021/08/05 08:23:36;;;;;;;14.68;13.25;;;20.90;99.90;;;;;;4973898;28;20093;-76
2021/08/05 08:26:02;;;;;;;13.60;12.35;;;21.00;99.90;;;;;;4978406;28;20034;-77
2021/08/05 08:28:28;;;;;;;12.55;11.23;;;21.10;99.90;;;;;;4985949;28;20034;-79
2021/08/05 08:30:53;;;;;;;13.85;12.45;;;21.20;99.90;;;;;;4982406;28;20031;-78
2021/08/05 08:33:19;;;;;;;11.95;10.60;;;21.30;99.90;;;;;;4974208;28;20111;-77
2021/08/05 08:35:45;;;;;;;10.32;9.32;;;21.40;99.90;;;;;;4958098;28;20019;-77
2021/08/05 08:38:10;;;;;;;10.50;9.60;;;21.40;99.90;;;;;;4958369;28;20111;-76
2021/08/05 08:40:36;;;;;;;11.27;10.27;;;21.60;99.90;;;;;;4962290;28;20020;-78
2021/08/05 08:43:04;;;;;;;11.02;10.02;;;21.50;99.90;;;;;;4992488;28;20394;-79
2021/08/05 08:45:30;;;;;;;11.88;10.85;;;21.50;99.90;;;;;;4976179;28;20360;-79
2021/08/05 08:47:56;;;;;;;11.90;10.90;;;21.50;99.90;;;;;;4988654;28;20168;-78
2021/08/05 08:50:34;;;;;;;11.55;10.63;;;21.50;99.90;;;;;;4989667;28;20486;-78
2021/08/05 08:53:08;;;;;;;12.93;11.68;;;21.50;99.90;;;;;;4989009;28;20474;-77
2021/08/05 08:55:35;;;;;;;14.50;11.93;;;21.50;99.90;;;;;;4983071;28;20026;-80
2021/08/05 08:58:03;;;;;;;15.80;14.20;;;21.40;99.90;;;;;;4973181;28;20054;-78
2021/08/05 09:00:30;;;;;;;14.55;13.18;;;21.30;99.90;;;;;;4984324;28;20060;-78
2021/08/05 09:03:00;;;;;;;14.52;13.07;;;21.30;99.90;;;;;;4983971;28;20027;-78
2021/08/05 09:05:27;;;;;;;12.80;11.77;;;21.10;99.90;;;;;;4983383;28;20149;-79
2021/08/05 09:07:54;;;;;;;13.65;12.27;;;21.00;99.90;;;;;;4965916;28;20051;-77
2021/08/05 09:10:20;;;;;;;13.60;12.40;;;21.00;99.90;;;;;;4956243;28;20031;-78
2021/08/05 09:12:46;;;;;;;13.30;12.13;;;21.00;99.90;;;;;;4960368;28;20043;-77
2021/08/05 09:15:13;;;;;;;12.10;11.20;;;21.00;99.90;;;;;;4960233;28;20034;-78
2021/08/05 09:17:43;;;;;;;15.43;12.00;;;21.00;99.90;;;;;;4959552;28;20468;-76
2021/08/05 09:20:11;;;;;;;10.20;9.30;;;21.00;99.90;;;;;;4965816;28;20086;-77
2021/08/05 09:22:43;;;;;;;12.32;11.13;;;21.10;99.90;;;;;;4971211;28;20503;-77
2021/08/05 09:25:17;;;;;;;11.95;10.90;;;21.20;99.90;;;;;;4963721;28;20118;-79
2021/08/05 09:27:44;;;;;;;13.05;11.85;;;21.20;99.90;;;;;;4964586;28;20037;-78
2021/08/05 09:30:10;;;;;;;15.10;12.30;;;21.30;99.90;;;;;;4961469;28;20034;-78
2021/08/05 09:32:35;;;;;;;11.63;10.50;;;21.30;99.90;;;;;;4961439;28;20041;-77
2021/08/05 09:35:06;;;;;;;13.07;11.90;;;21.40;99.90;;;;;;4958383;28;20041;-78
2021/08/05 09:37:39;;;;;;;15.60;14.10;;;21.40;99.90;;;;;;4968046;28;20057;-77
2021/08/05 09:40:13;;;;;;;12.43;11.38;;;21.40;99.90;;;;;;4970964;28;20030;-78
2021/08/05 09:42:39;;;;;;;13.32;12.13;;;21.50;99.90;;;;;;4966352;28;20022;-78
2021/08/05 09:45:07;;;;;;;14.15;12.95;;;21.50;99.90;;;;;;4961824;28;20027;-79
2021/08/05 09:47:41;;;;;;;13.93;12.52;;;21.50;99.90;;;;;;4955191;28;20101;-78
2021/08/05 09:50:08;;;;;;;13.32;12.13;;;21.50;99.90;;;;;;4965281;28;20022;-78
2021/08/05 09:52:35;;;;;;;14.85;13.45;;;21.60;99.90;;;;;;4963707;28;20035;-79
2021/08/05 09:55:09;;;;;;;15.00;13.70;;;21.70;99.90;;;;;;4960100;28;20034;-78
2021/08/05 09:57:37;;;;;;;15.23;13.32;;;21.80;99.90;;;;;;4961005;28;20035;-78
2021/08/05 10:00:16;;;;;;;14.35;12.90;;;21.80;99.90;;;;;;4962083;28;20379;-77
2021/08/05 10:02:50;;;;;;;15.10;13.60;;;21.90;99.90;;;;;;4961107;28;20038;-78
2021/08/05 10:05:20;;;;;;;14.23;12.02;;;22.00;99.90;;;;;;4959533;28;20511;-79
2021/08/05 10:07:47;;;;;;;13.40;12.10;;;22.00;99.90;;;;;;4961166;28;20044;-77
2021/08/05 10:10:14;;;;;;;13.45;12.23;;;22.00;99.90;;;;;;4957474;28;20296;-78
2021/08/05 10:12:41;;;;;;;13.65;12.35;;;22.20;99.90;;;;;;4960373;28;20201;-77
2021/08/05 10:15:14;;;;;;;13.60;12.30;;;22.30;99.90;;;;;;4960824;28;20077;-78
2021/08/05 10:17:43;;;;;;;14.68;13.25;;;22.30;99.90;;;;;;4958703;28;20025;-78
2021/08/05 10:20:25;;;;;;;15.05;13.50;;;22.30;99.90;;;;;;4958973;28;20023;-78
2021/08/05 10:22:52;;;;;;;14.98;12.95;;;22.30;99.90;;;;;;4960337;28;20030;-78
2021/08/05 10:25:25;;;;;;;14.48;13.20;;;22.30;99.90;;;;;;4974151;28;20070;-77
2021/08/05 10:27:51;;;;;;;14.25;12.25;;;22.40;99.90;;;;;;4972161;28;20034;-79
2021/08/05 10:30:18;;;;;;;14.80;13.15;;;22.50;99.90;;;;;;4970845;28;20098;-79
2021/08/05 10:32:45;;;;;;;13.65;12.18;;;22.50;99.90;;;;;;4971410;28;20027;-77
2021/08/05 10:35:12;;;;;;;13.00;11.70;;;22.50;99.90;;;;;;4971726;28;20031;-78
2021/08/05 10:37:39;;;;;;;14.02;12.77;;;22.60;99.90;;;;;;4967534;28;20046;-78
2021/08/05 10:40:09;;;;;;;13.15;12.00;;;22.60;99.90;;;;;;4966506;28;20039;-78
2021/08/05 10:42:35;;;;;;;15.75;14.18;;;22.80;99.90;;;;;;4970766;28;20031;-79
2021/08/05 10:45:01;;;;;;;16.25;14.85;;;22.80;99.90;;;;;;4970760;28;20023;-78
2021/08/05 10:47:29;;;;;;;15.50;14.10;;;22.80;99.90;;;;;;4985115;28;20459;-78
2021/08/05 10:49:57;;;;;;;14.82;13.40;;;22.90;99.90;;;;;;4992365;28;20069;-78
2021/08/05 10:52:34;;;;;;;15.88;14.55;;;22.90;99.90;;;;;;4991779;28;20495;-80
2021/08/05 10:55:15;;;;;;;15.45;14.02;;;22.90;99.90;;;;;;4992152;28;20030;-79
2021/08/05 10:57:41;;;;;;;15.75;14.05;;;23.10;99.90;;;;;;4992621;28;20026;-78
2021/08/05 11:00:14;;;;;;;14.15;12.95;;;23.20;99.90;;;;;;4993429;28;20025;-80
2021/08/05 11:02:56;;;;;;;17.38;15.65;;;23.20;99.90;;;;;;4995953;28;20442;-79
2021/08/05 11:05:21;;;;;;;15.55;14.13;;;23.30;99.90;;;;;;4995279;28;20029;-80
2021/08/05 11:07:48;;;;;;;17.10;14.35;;;23.20;99.90;;;;;;4996049;28;20022;-80
2021/08/05 11:10:16;;;;;;;15.25;13.63;;;23.10;99.90;;;;;;4995474;28;20019;-79
2021/08/05 11:12:48;;;;;;;16.15;14.65;;;23.20;99.90;;;;;;4994754;28;20050;-79
2021/08/05 11:15:19;;;;;;;14.98;13.68;;;23.30;99.90;;;;;;4995317;28;20066;-78
2021/08/05 11:18:16;;;;;;;17.38;15.68;;;23.30;99.90;;;;;;4995138;28;20497;-78
2021/08/05 11:20:51;;;;;;;16.40;14.93;;;23.50;99.90;;;;;;4994942;28;20026;-79
2021/08/05 11:23:31;;;;;;;17.40;15.70;;;23.60;99.90;;;;;;4995286;28;20109;-79
2021/08/05 11:25:57;;;;;;;16.23;14.65;;;23.70;99.90;;;;;;4994694;28;20037;-79
2021/08/05 11:28:33;;;;;;;14.60;13.30;;;23.90;99.90;;;;;;4995414;28;20031;-79
2021/08/05 11:31:09;;;;;;;15.32;14.02;;;24.00;99.70;;;;;;4995087;28;20102;-79
2021/08/05 11:33:40;;;;;;;13.05;11.85;;;24.10;99.60;;;;;;4994331;28;20030;-77
2021/08/05 11:36:22;;;;;;;14.93;13.52;;;24.20;99.70;;;;;;4994783;28;20019;-77
2021/08/05 11:39:20;;;;;;;16.17;14.52;;;24.20;99.40;;;;;;4994655;28;20026;-79
2021/08/05 11:41:53;;;;;;;17.67;16.05;;;24.20;99.20;;;;;;4994236;28;20054;-78
2021/08/05 11:44:32;;;;;;;16.63;15.18;;;24.30;98.80;;;;;;4994999;28;20022;-79
2021/08/05 11:47:11;;;;;;;16.58;15.00;;;24.30;98.60;;;;;;4994827;28;20050;-77
2021/08/05 11:49:45;;;;;;;15.00;13.60;;;24.30;98.20;;;;;;4994970;28;20031;-80
2021/08/05 11:52:19;;;;;;;14.07;12.65;;;24.30;98.80;;;;;;4995020;28;20378;-78
2021/08/05 11:55:05;;;;;;;12.90;11.68;;;24.30;98.60;;;;;;4986755;28;20022;-79
2021/08/05 11:57:36;;;;;;;14.05;12.52;;;24.20;98.20;;;;;;4970186;28;20146;-79
2021/08/05 12:00:13;;;;;;;14.80;13.50;;;24.20;98.10;;;;;;4975319;28;20026;-79
2021/08/05 12:02:40;;;;;;;12.48;11.50;;;24.30;98.10;;;;;;4974589;28;20102;-77
2021/08/05 12:05:07;;;;;;;18.52;13.07;;;24.40;98.00;;;;;;4972866;28;20022;-78
2021/08/05 12:07:37;;;;;;;14.10;12.82;;;24.60;97.50;;;;;;4974153;28;20415;-77
2021/08/05 12:10:05;;;;;;;10.57;9.77;;;24.80;96.90;;;;;;4973692;28;20541;-79
2021/08/05 12:12:45;;;;;;;10.93;10.02;;;25.00;96.40;;;;;;4974814;28;20042;-80
2021/08/05 12:15:17;;;;;;;9.95;9.18;;;25.20;96.10;;;;;;4973853;28;20023;-77
2021/08/05 12:17:49;;;;;;;10.63;9.63;;;25.40;95.70;;;;;;4974329;28;20026;-75
2021/08/05 12:20:26;;;;;;;8.80;8.13;;;25.70;95.10;;;;;;4974561;28;20023;-76
2021/08/05 12:22:54;;;;;;;10.43;9.63;;;25.80;94.80;;;;;;4973879;28;20103;-77
2021/08/05 12:25:33;;;;;;;10.10;9.20;;;25.80;94.40;;;;;;4974441;28;20034;-77
2021/08/05 12:28:09;;;;;;;13.23;11.80;;;25.90;94.30;;;;;;4974056;28;20030;-77
2021/08/05 12:30:40;;;;;;;10.50;9.65;;;25.90;93.20;;;;;;4973864;28;20031;-75
2021/08/05 12:33:11;;;;;;;10.93;9.93;;;25.90;93.30;;;;;;4974406;28;20106;-77